Time;durP1;ratioP1;P1;durP2;ratioP2;P2;SDS_P1;SDS_P2;PMS_P1;PMS_P2;Temp;Humidity;BMP_temperature;BMP_pressure;BME280_temperature;BME280_humidity;BME280_pressure;Samples;Min_cycle;Max_cycle;Signal;HPM_P1;HPM_P2
2021/04/02 00:01:19;;;;;;;23.88;12.85;;;14.60;96.40;;;;;;5034321;28;20444;-82
2021/04/02 00:03:45;;;;;;;21.13;11.95;;;14.50;96.50;;;;;;5034466;28;20040;-81
2021/04/02 00:06:12;;;;;;;21.45;12.38;;;14.50;96.70;;;;;;5034389;28;20037;-84
2021/04/02 00:08:38;;;;;;;19.85;11.88;;;14.50;96.80;;;;;;5017480;28;20104;-85
2021/04/02 00:11:06;;;;;;;18.23;12.27;;;14.50;97.00;;;;;;5051708;28;20031;-84
2021/04/02 00:13:35;;;;;;;22.67;12.48;;;14.50;97.20;;;;;;5052450;28;20044;-86
2021/04/02 00:16:02;;;;;;;22.95;12.27;;;14.50;97.30;;;;;;5052367;28;20502;-82
2021/04/02 00:18:28;;;;;;;22.17;11.88;;;14.50;97.20;;;;;;5034617;28;20041;-86
2021/04/02 00:20:56;;;;;;;18.83;11.63;;;14.50;97.10;;;;;;5054713;28;20437;-86
2021/04/02 00:23:23;;;;;;;22.60;11.60;;;14.50;97.10;;;;;;5055935;28;20489;-85
2021/04/02 00:25:49;;;;;;;17.75;10.55;;;14.50;97.30;;;;;;5038622;28;20032;-83
2021/04/02 00:28:15;;;;;;;20.30;11.02;;;14.50;97.30;;;;;;5056090;28;20029;-86
2021/04/02 00:30:43;;;;;;;20.27;10.35;;;14.50;97.30;;;;;;5055989;28;20036;-86
2021/04/02 00:33:09;;;;;;;21.58;10.25;;;14.50;97.40;;;;;;5037805;28;20082;-86
2021/04/02 00:35:37;;;;;;;19.65;10.65;;;14.50;97.30;;;;;;5038018;28;20032;-85
2021/04/02 00:38:04;;;;;;;17.15;10.55;;;14.50;97.30;;;;;;5055928;28;20108;-83
2021/04/02 00:40:36;;;;;;;17.00;9.35;;;14.50;97.30;;;;;;5055556;28;20036;-83
2021/04/02 00:43:03;;;;;;;18.50;9.07;;;14.50;97.30;;;;;;5055672;28;20029;-84
2021/04/02 00:45:29;;;;;;;15.40;9.68;;;14.50;97.40;;;;;;5055934;28;20027;-85
2021/04/02 00:47:57;;;;;;;19.40;11.38;;;14.50;97.30;;;;;;5055918;28;20021;-86
2021/04/02 00:50:41;;;;;;;17.65;9.68;;;14.50;97.30;;;;;;5038168;28;20035;-86
2021/04/02 00:53:07;;;;;;;14.65;8.93;;;14.50;97.30;;;;;;5055817;28;20025;-86
2021/04/02 00:55:35;;;;;;;17.25;9.10;;;14.50;97.20;;;;;;5056014;28;20036;-85
2021/04/02 00:58:02;;;;;;;18.50;10.20;;;14.50;97.20;;;;;;5055826;28;20025;-86
2021/04/02 01:00:31;;;;;;;19.10;9.93;;;14.50;97.20;;;;;;5038328;28;20072;-86
2021/04/02 01:02:58;;;;;;;16.30;9.18;;;14.50;97.30;;;;;;5055776;28;20017;-84
2021/04/02 01:05:28;;;;;;;15.50;8.70;;;14.50;97.30;;;;;;5055725;28;20032;-87
2021/04/02 01:08:01;;;;;;;13.00;8.32;;;14.50;97.40;;;;;;5055646;28;20031;-85
2021/04/02 01:10:29;;;;;;;15.20;8.75;;;14.50;97.30;;;;;;5021226;28;20514;-86
2021/04/02 01:13:05;;;;;;;19.45;9.60;;;14.50;97.30;;;;;;5037878;28;20415;-85
2021/04/02 01:15:34;;;;;;;15.68;9.60;;;14.50;97.30;;;;;;5055281;28;20052;-85
2021/04/02 01:18:10;;;;;;;12.90;8.38;;;14.50;97.30;;;;;;5021570;28;20112;-85
2021/04/02 01:20:38;;;;;;;14.68;8.73;;;14.40;97.30;;;;;;5055590;28;20114;-85
2021/04/02 01:23:10;;;;;;;12.70;7.90;;;14.40;97.30;;;;;;5037593;28;20083;-85
2021/04/02 01:25:51;;;;;;;13.73;8.50;;;14.40;97.30;;;;;;5055369;28;20429;-85
2021/04/02 01:28:42;;;;;;;15.05;8.73;;;14.40;97.20;;;;;;5037571;28;20029;-86
2021/04/02 01:31:10;;;;;;;12.90;7.60;;;14.40;97.20;;;;;;5054494;28;20025;-85
2021/04/02 01:33:37;;;;;;;14.20;8.07;;;14.40;97.20;;;;;;5055229;28;20037;-86
2021/04/02 01:36:05;;;;;;;13.93;8.00;;;14.40;97.20;;;;;;5037179;28;20091;-86
2021/04/02 01:38:36;;;;;;;12.18;7.68;;;14.40;97.00;;;;;;5037155;28;20032;-86
2021/04/02 01:41:08;;;;;;;19.17;9.23;;;14.40;97.00;;;;;;5020740;28;20024;-86
2021/04/02 01:43:45;;;;;;;12.57;8.52;;;14.40;97.00;;;;;;5034870;28;20033;-86
2021/04/02 01:46:14;;;;;;;10.45;7.97;;;14.40;97.00;;;;;;5017441;28;20029;-86
2021/04/02 01:48:43;;;;;;;18.83;9.23;;;14.40;96.90;;;;;;5017702;28;20055;-85
2021/04/02 01:51:10;;;;;;;11.85;7.85;;;14.40;96.90;;;;;;5045689;28;20049;-84
2021/04/02 01:53:42;;;;;;;14.10;8.00;;;14.40;97.00;;;;;;5037054;28;20037;-85
2021/04/02 01:56:10;;;;;;;13.68;8.13;;;14.40;97.00;;;;;;5036761;28;20105;-86
2021/04/02 01:58:42;;;;;;;13.98;8.18;;;14.40;96.90;;;;;;5036813;28;20036;-84
2021/04/02 02:01:11;;;;;;;13.82;8.23;;;14.40;96.80;;;;;;5054716;28;20039;-85
2021/04/02 02:03:41;;;;;;;10.63;6.82;;;14.30;96.80;;;;;;5036686;28;20075;-85
2021/04/02 02:06:13;;;;;;;9.10;6.10;;;14.30;96.70;;;;;;5036642;28;20032;-85
2021/04/02 02:08:55;;;;;;;11.55;6.78;;;14.30;96.60;;;;;;5036752;28;20610;-85
2021/04/02 02:11:29;;;;;;;13.55;7.15;;;14.40;96.50;;;;;;5036280;28;20035;-85
2021/04/02 02:14:05;;;;;;;11.13;7.30;;;14.30;96.50;;;;;;5036796;28;20418;-86
2021/04/02 02:16:35;;;;;;;11.15;6.78;;;14.30;96.40;;;;;;5036352;28;20053;-84
2021/04/02 02:19:13;;;;;;;9.50;6.55;;;14.30;96.50;;;;;;5036397;28;20119;-85
2021/04/02 02:21:43;;;;;;;12.80;7.18;;;14.30;96.60;;;;;;5036328;28;20033;-85
2021/04/02 02:24:11;;;;;;;13.02;6.93;;;14.30;96.70;;;;;;5036098;28;20040;-84
2021/04/02 02:26:40;;;;;;;13.77;7.68;;;14.30;96.80;;;;;;5036379;28;20035;-85
2021/04/02 02:29:09;;;;;;;13.23;7.35;;;14.20;96.80;;;;;;5036143;28;20084;-83
2021/04/02 02:31:36;;;;;;;11.50;7.03;;;14.20;96.70;;;;;;5036028;28;20013;-84
2021/04/02 02:34:03;;;;;;;9.50;6.82;;;14.20;96.80;;;;;;5054024;28;20067;-86
2021/04/02 02:36:39;;;;;;;10.88;7.20;;;14.10;96.80;;;;;;5020892;28;20032;-84
2021/04/02 02:39:12;;;;;;;13.02;7.68;;;14.20;96.80;;;;;;5019972;28;20033;-85
2021/04/02 02:41:43;;;;;;;14.70;7.30;;;14.10;96.80;;;;;;5036171;28;20040;-85
2021/04/02 02:44:12;;;;;;;13.70;7.50;;;14.10;97.00;;;;;;5018952;28;20133;-85
2021/04/02 02:46:40;;;;;;;10.68;7.30;;;14.10;97.00;;;;;;5035754;28;20029;-84
2021/04/02 02:49:12;;;;;;;12.20;6.90;;;14.10;97.20;;;;;;5035668;28;20021;-85
2021/04/02 02:51:41;;;;;;;12.35;6.75;;;14.10;97.20;;;;;;5036072;28;20052;-86
2021/04/02 02:54:14;;;;;;;11.02;6.50;;;14.10;97.30;;;;;;5035923;28;20120;-84
2021/04/02 02:56:42;;;;;;;;;;;14.00;97.50;;;;;;5036431;28;20029;-86
2021/04/02 02:59:14;;;;;;;13.98;7.00;;;14.00;97.50;;;;;;5035778;28;19913;-84
2021/04/02 03:01:41;;;;;;;13.85;7.82;;;14.00;97.50;;;;;;5035899;28;20047;-84
2021/04/02 03:04:09;;;;;;;15.05;7.07;;;14.00;97.50;;;;;;5018992;28;20048;-85
2021/04/02 03:06:41;;;;;;;14.82;7.38;;;14.00;97.60;;;;;;5035536;28;20499;-85
2021/04/02 03:09:10;;;;;;;11.32;7.57;;;14.00;97.50;;;;;;5035509;28;20037;-84
2021/04/02 03:11:41;;;;;;;11.90;7.40;;;13.90;97.40;;;;;;5035298;28;20043;-86
2021/04/02 03:14:09;;;;;;;12.60;7.75;;;13.90;97.50;;;;;;5035213;28;20043;-86
2021/04/02 03:16:42;;;;;;;11.23;7.13;;;13.90;97.50;;;;;;5052745;28;20056;-83
2021/04/02 03:19:12;;;;;;;13.98;7.38;;;13.90;97.60;;;;;;5034919;28;20070;-85
2021/04/02 03:21:38;;;;;;;13.93;7.50;;;13.80;97.70;;;;;;5035815;28;20029;-86
2021/04/02 03:24:18;;;;;;;13.77;7.90;;;13.80;97.70;;;;;;5035250;28;20091;-85
2021/04/02 03:26:51;;;;;;;17.42;7.97;;;13.80;97.80;;;;;;5035267;28;20029;-86
2021/04/02 03:29:19;;;;;;;11.88;7.82;;;13.80;97.70;;;;;;5034881;28;20039;-86
2021/04/02 03:31:47;;;;;;;15.65;8.90;;;13.80;97.70;;;;;;5035569;28;20025;-86
2021/04/02 03:34:17;;;;;;;13.45;8.65;;;13.70;97.70;;;;;;5035226;28;20487;-86
2021/04/02 03:36:45;;;;;;;20.70;9.02;;;13.70;97.80;;;;;;5019320;28;20028;-84
2021/04/02 03:39:25;;;;;;;17.05;9.38;;;13.70;97.70;;;;;;5053031;28;20033;-85
2021/04/02 03:41:54;;;;;;;14.57;9.05;;;13.60;98.00;;;;;;5035480;28;20398;-86
2021/04/02 03:44:25;;;;;;;15.85;8.93;;;13.50;98.10;;;;;;5053029;28;20203;-86
2021/04/02 03:46:53;;;;;;;14.18;8.00;;;13.50;98.20;;;;;;5035059;28;20029;-86
2021/04/02 03:49:27;;;;;;;15.35;9.02;;;13.50;98.40;;;;;;5035495;28;20048;-85
2021/04/02 03:51:57;;;;;;;;;;;13.50;98.60;;;;;;5035849;28;20029;-85
2021/04/02 03:54:25;;;;;;;14.93;8.75;;;13.50;98.60;;;;;;5069148;28;19916;-86
2021/04/02 03:56:56;;;;;;;14.57;7.95;;;13.40;98.60;;;;;;5022967;28;20025;-86
2021/04/02 03:59:30;;;;;;;13.27;8.30;;;13.40;98.80;;;;;;5039292;28;20121;-84
2021/04/02 04:01:58;;;;;;;13.88;7.90;;;13.40;98.90;;;;;;5057065;28;20040;-86
2021/04/02 04:04:29;;;;;;;14.40;8.88;;;13.40;99.10;;;;;;5023082;28;20047;-86
2021/04/02 04:07:03;;;;;;;12.65;7.95;;;13.40;99.10;;;;;;5038964;28;20032;-86
2021/04/02 04:09:30;;;;;;;16.73;8.23;;;13.40;99.00;;;;;;5056928;28;20075;-86
2021/04/02 04:12:09;;;;;;;16.88;8.50;;;13.40;99.10;;;;;;5038787;28;20036;-86
2021/04/02 04:14:49;;;;;;;13.18;8.27;;;13.40;99.10;;;;;;5038805;28;20079;-85
2021/04/02 04:17:20;;;;;;;14.27;9.35;;;13.30;98.90;;;;;;5038882;28;20033;-85
2021/04/02 04:19:50;;;;;;;17.52;9.85;;;13.30;98.80;;;;;;5038823;28;20392;-79
2021/04/02 04:22:24;;;;;;;16.92;9.35;;;13.20;98.90;;;;;;5038903;28;20029;-85
2021/04/02 04:24:53;;;;;;;18.38;9.98;;;13.20;98.90;;;;;;5038783;28;20033;-86
2021/04/02 04:27:19;;;;;;;16.23;10.20;;;13.10;99.10;;;;;;5056519;28;20025;-84
2021/04/02 04:29:50;;;;;;;15.90;9.88;;;13.10;99.10;;;;;;5056508;28;20033;-86
2021/04/02 04:32:20;;;;;;;17.00;10.38;;;13.00;99.20;;;;;;5056472;28;20028;-86
2021/04/02 04:34:48;;;;;;;14.48;9.88;;;13.10;99.20;;;;;;5038896;28;20040;-85
2021/04/02 04:37:17;;;;;;;17.27;10.48;;;13.00;99.30;;;;;;5038317;28;20170;-85
2021/04/02 04:39:45;;;;;;;18.88;10.18;;;13.00;99.30;;;;;;5054993;28;20465;-77
2021/04/02 04:42:13;;;;;;;16.63;9.50;;;13.00;99.30;;;;;;5038355;28;20151;-85
2021/04/02 04:44:42;;;;;;;16.25;9.05;;;13.00;99.60;;;;;;5052265;28;20037;-86
2021/04/02 04:47:08;;;;;;;16.70;9.43;;;13.00;99.60;;;;;;5046794;28;20033;-87
2021/04/02 04:49:34;;;;;;;17.92;9.70;;;13.10;99.70;;;;;;5046012;28;20040;-87
2021/04/02 04:52:01;;;;;;;15.02;9.05;;;13.10;99.80;;;;;;5042487;28;20029;-85
2021/04/02 04:54:31;;;;;;;17.48;10.20;;;13.10;99.80;;;;;;5036107;28;20014;-87
2021/04/02 04:56:58;;;;;;;16.27;9.75;;;13.20;99.90;;;;;;5051909;28;20497;-82
2021/04/02 04:59:28;;;;;;;34.50;12.13;;;13.20;99.90;;;;;;5050631;28;20380;-88
2021/04/02 05:01:55;;;;;;;23.58;12.50;;;13.20;99.90;;;;;;5037463;28;20028;-87
2021/04/02 05:04:24;;;;;;;20.55;11.60;;;13.30;99.90;;;;;;5054961;28;20463;-86
2021/04/02 05:06:55;;;;;;;19.88;11.23;;;13.30;99.90;;;;;;5054759;28;20021;-86
2021/04/02 05:09:24;;;;;;;13.95;9.38;;;13.30;99.90;;;;;;5055863;28;20029;-86
2021/04/02 05:11:52;;;;;;;14.13;7.88;;;13.30;99.90;;;;;;5038267;28;20550;-87
2021/04/02 05:14:19;;;;;;;15.18;8.77;;;13.30;99.90;;;;;;5038368;28;20033;-87
2021/04/02 05:16:47;;;;;;;15.38;8.80;;;13.40;99.90;;;;;;5038050;28;20080;-87
2021/04/02 05:19:18;;;;;;;14.10;7.85;;;13.40;99.90;;;;;;5049318;28;20060;-81
2021/04/02 05:21:45;;;;;;;16.02;8.10;;;13.50;99.90;;;;;;5036919;28;20059;-87
2021/04/02 05:24:12;;;;;;;14.50;7.75;;;13.50;99.90;;;;;;5054981;28;20048;-89
2021/04/02 05:26:39;;;;;;;13.23;7.88;;;13.50;99.90;;;;;;5021710;28;20033;-85
2021/04/02 05:29:05;;;;;;;14.45;7.75;;;13.60;99.90;;;;;;5054811;28;20029;-88
2021/04/02 05:31:33;;;;;;;10.55;7.32;;;13.70;99.90;;;;;;5036876;28;20025;-89
2021/04/02 05:33:59;;;;;;;11.65;7.25;;;13.70;99.90;;;;;;5048855;28;20037;-86
2021/04/02 05:36:25;;;;;;;11.70;7.15;;;13.80;99.90;;;;;;5036698;28;20043;-89
2021/04/02 05:38:51;;;;;;;13.30;7.53;;;13.90;99.90;;;;;;5054136;28;20124;-84
2021/04/02 05:41:25;;;;;;;10.13;7.15;;;14.00;99.90;;;;;;5036865;28;20141;-88
2021/04/02 05:44:02;;;;;;;14.38;8.05;;;14.00;99.90;;;;;;5054708;28;20025;-82
2021/04/02 05:46:30;;;;;;;14.00;8.25;;;14.00;99.90;;;;;;5036624;28;20032;-88
2021/04/02 05:49:03;;;;;;;12.90;7.47;;;14.10;99.90;;;;;;5054142;28;20013;-90
2021/04/02 05:51:30;;;;;;;18.95;9.27;;;14.10;99.90;;;;;;5053983;28;20028;-88
2021/04/02 05:53:56;;;;;;;15.27;8.13;;;14.10;99.90;;;;;;5054664;28;20029;-89
2021/04/02 05:56:23;;;;;;;15.20;8.40;;;14.20;99.90;;;;;;5036686;28;20033;-88
2021/04/02 05:58:53;;;;;;;13.82;7.80;;;14.20;99.90;;;;;;5035654;28;20049;-84
2021/04/02 06:01:20;;;;;;;16.77;7.93;;;14.30;99.90;;;;;;5053766;28;20064;-86
2021/04/02 06:03:46;;;;;;;13.63;7.78;;;14.40;99.90;;;;;;5053678;28;20159;-80
2021/04/02 06:06:14;;;;;;;13.60;6.50;;;14.50;99.90;;;;;;5053751;28;20479;-83
2021/04/02 06:08:45;;;;;;;12.52;6.90;;;14.60;99.90;;;;;;5053765;28;20399;-85
2021/04/02 06:11:12;;;;;;;11.55;7.18;;;14.60;99.90;;;;;;5053569;28;20025;-85
2021/04/02 06:13:38;;;;;;;13.23;7.00;;;14.70;99.90;;;;;;5048475;28;20025;-83
2021/04/02 06:16:05;;;;;;;11.18;5.95;;;14.70;99.90;;;;;;5033651;28;20052;-81
2021/04/02 06:18:39;;;;;;;12.50;7.05;;;14.80;99.90;;;;;;5015746;28;20391;-83
2021/04/02 06:21:05;;;;;;;14.68;7.80;;;14.80;99.90;;;;;;5033567;28;20392;-82
2021/04/02 06:23:33;;;;;;;13.25;7.72;;;14.90;99.90;;;;;;5033481;28;20029;-79
2021/04/02 06:26:13;;;;;;;14.13;6.97;;;14.90;99.90;;;;;;5033328;28;20033;-78
2021/04/02 06:28:41;;;;;;;14.55;7.15;;;14.90;99.90;;;;;;5033374;28;20480;-85
2021/04/02 06:31:07;;;;;;;11.63;6.90;;;15.00;99.90;;;;;;5042865;28;20021;-84
2021/04/02 06:33:43;;;;;;;15.90;6.80;;;15.00;99.90;;;;;;5053454;28;20033;-85
2021/04/02 06:36:23;;;;;;;12.77;6.85;;;15.00;99.90;;;;;;5040469;28;20098;-81
2021/04/02 06:38:51;;;;;;;12.30;6.75;;;15.10;99.90;;;;;;5059078;28;20078;-87
2021/04/02 06:41:18;;;;;;;10.50;6.00;;;15.20;99.90;;;;;;5053230;28;20418;-85
2021/04/02 06:43:47;;;;;;;9.60;5.40;;;15.20;99.90;;;;;;5053089;28;20025;-86
2021/04/02 06:46:17;;;;;;;11.18;6.10;;;15.30;99.90;;;;;;5053347;28;20107;-84
2021/04/02 06:48:43;;;;;;;9.82;5.70;;;15.30;99.90;;;;;;5053174;28;20025;-86
2021/04/02 06:51:17;;;;;;;13.00;7.00;;;15.40;99.90;;;;;;5035548;28;20021;-87
2021/04/02 06:53:44;;;;;;;9.77;6.35;;;15.50;99.90;;;;;;5052974;28;20173;-79
2021/04/02 06:56:12;;;;;;;11.45;7.00;;;15.70;99.90;;;;;;5046600;28;20037;-86
2021/04/02 06:58:43;;;;;;;18.67;7.38;;;15.70;99.90;;;;;;5033525;28;20048;-85
2021/04/02 07:01:12;;;;;;;9.10;6.22;;;15.90;99.90;;;;;;5016449;28;20025;-87
2021/04/02 07:03:40;;;;;;;10.23;5.55;;;16.00;99.90;;;;;;5052912;28;20139;-88
2021/04/02 07:06:06;;;;;;;11.80;5.80;;;16.10;99.90;;;;;;5053171;28;20419;-86
2021/04/02 07:08:37;;;;;;;9.80;6.13;;;16.20;99.50;;;;;;5046722;28;20472;-87
2021/04/02 07:11:04;;;;;;;8.85;5.65;;;16.20;98.60;;;;;;5035603;28;20040;-86
2021/04/02 07:13:45;;;;;;;8.65;5.50;;;16.20;97.90;;;;;;5047889;28;20075;-88
2021/04/02 07:16:12;;;;;;;8.65;5.50;;;16.30;97.40;;;;;;5048409;28;20049;-88
2021/04/02 07:18:39;;;;;;;16.77;9.05;;;16.30;97.70;;;;;;5053523;28;20021;-87
2021/04/02 07:21:06;;;;;;;104.32;47.97;;;16.40;97.60;;;;;;5053295;28;20040;-87
2021/04/02 07:23:33;;;;;;;38.55;18.92;;;16.40;97.60;;;;;;5053289;28;20029;-86
2021/04/02 07:26:00;;;;;;;16.20;9.55;;;16.50;97.60;;;;;;5053265;28;20029;-87
2021/04/02 07:28:27;;;;;;;26.95;14.70;;;16.50;97.10;;;;;;5053391;28;20479;-81
2021/04/02 07:30:55;;;;;;;8.77;6.20;;;16.60;97.40;;;;;;5052885;28;20391;-87
2021/04/02 07:33:22;;;;;;;9.82;5.93;;;16.60;96.60;;;;;;5053166;28;20021;-88
2021/04/02 07:36:00;;;;;;;8.75;5.78;;;16.60;96.90;;;;;;5053140;28;20017;-88
2021/04/02 07:38:29;;;;;;;16.55;9.38;;;16.60;96.80;;;;;;5053444;28;20040;-88
2021/04/02 07:40:56;;;;;;;10.70;7.28;;;16.70;96.80;;;;;;5053208;28;20025;-85
2021/04/02 07:43:27;;;;;;;9.57;6.32;;;16.80;96.90;;;;;;5053015;28;20029;-88
2021/04/02 07:46:11;;;;;;;9.38;5.90;;;17.00;97.10;;;;;;5053557;28;20069;-86
2021/04/02 07:48:37;;;;;;;11.35;6.93;;;17.10;97.00;;;;;;5062425;28;20040;-86
2021/04/02 07:51:03;;;;;;;8.57;5.72;;;17.20;97.10;;;;;;5060230;28;20029;-87
2021/04/02 07:53:32;;;;;;;11.82;6.28;;;17.20;96.30;;;;;;5035169;28;20028;-87
2021/04/02 07:56:18;;;;;;;11.88;6.65;;;17.30;96.90;;;;;;5052885;28;20029;-87
2021/04/02 07:58:50;;;;;;;8.73;6.07;;;17.30;97.10;;;;;;5053297;28;20033;-87
2021/04/02 08:01:22;;;;;;;9.20;6.05;;;17.50;97.20;;;;;;5035237;28;20030;-85
2021/04/02 08:03:49;;;;;;;18.20;6.07;;;17.50;96.90;;;;;;5052847;28;20075;-87
2021/04/02 08:06:38;;;;;;;9.75;6.13;;;17.60;96.10;;;;;;5052893;28;20049;-86
2021/04/02 08:09:06;;;;;;;9.30;5.72;;;17.60;96.50;;;;;;5052905;28;20037;-86
2021/04/02 08:11:45;;;;;;;7.38;5.15;;;17.70;96.20;;;;;;5052924;28;20104;-88
2021/04/02 08:14:13;;;;;;;8.95;5.95;;;17.80;95.90;;;;;;5052813;28;20382;-85
2021/04/02 08:16:50;;;;;;;9.77;6.18;;;17.80;96.00;;;;;;5052473;28;20487;-87
2021/04/02 08:19:30;;;;;;;9.30;6.20;;;17.80;96.30;;;;;;5052849;28;20063;-87
2021/04/02 08:21:59;;;;;;;9.15;7.10;;;17.90;96.40;;;;;;5052757;28;20025;-86
2021/04/02 08:24:28;;;;;;;9.68;6.70;;;18.00;96.30;;;;;;5052708;28;20068;-86
2021/04/02 08:26:55;;;;;;;9.77;6.45;;;18.10;96.70;;;;;;5052663;28;20021;-87
2021/04/02 08:29:23;;;;;;;9.27;7.75;;;18.30;96.90;;;;;;5052758;28;20087;-86
2021/04/02 08:31:52;;;;;;;14.50;6.50;;;18.30;96.40;;;;;;5053285;28;20121;-87
2021/04/02 08:34:21;;;;;;;10.65;6.90;;;18.40;96.20;;;;;;5052744;28;20476;-87
2021/04/02 08:36:49;;;;;;;14.25;6.65;;;18.50;96.10;;;;;;5052516;28;20040;-87
2021/04/02 08:39:18;;;;;;;8.95;5.95;;;18.60;96.30;;;;;;5052898;28;20581;-85
2021/04/02 08:41:44;;;;;;;10.70;7.38;;;18.60;95.60;;;;;;5053044;28;20262;-83
2021/04/02 08:44:10;;;;;;;10.80;6.78;;;18.60;95.20;;;;;;5055741;28;20037;-85
2021/04/02 08:46:42;;;;;;;13.38;7.15;;;18.70;95.70;;;;;;5055933;28;20083;-85
2021/04/02 08:49:10;;;;;;;10.20;7.15;;;18.80;95.70;;;;;;5038774;28;20108;-85
2021/04/02 08:51:36;;;;;;;11.88;6.40;;;18.90;95.60;;;;;;5038058;28;20040;-85
2021/04/02 08:54:04;;;;;;;8.75;6.07;;;19.00;94.80;;;;;;5038439;28;20033;-81
2021/04/02 08:56:32;;;;;;;9.45;5.72;;;19.20;94.50;;;;;;5056075;28;20039;-85
2021/04/02 08:59:01;;;;;;;9.85;6.45;;;19.30;94.30;;;;;;5055836;28;20060;-85
2021/04/02 09:01:28;;;;;;;9.35;5.68;;;19.30;94.30;;;;;;5067425;28;20025;-87
2021/04/02 09:03:55;;;;;;;8.20;5.55;;;19.40;94.50;;;;;;5056803;28;20032;-86
2021/04/02 09:06:22;;;;;;;7.15;5.63;;;19.40;93.70;;;;;;5055524;28;20035;-86
2021/04/02 09:08:48;;;;;;;12.60;6.57;;;19.50;93.30;;;;;;5037993;28;20494;-86
2021/04/02 09:11:14;;;;;;;9.48;5.25;;;19.50;93.30;;;;;;5055648;28;20052;-85
2021/04/02 09:13:41;;;;;;;9.27;5.35;;;19.50;93.10;;;;;;5055686;28;20049;-85
2021/04/02 09:16:10;;;;;;;7.45;5.35;;;19.40;93.10;;;;;;5055566;28;20041;-86
2021/04/02 09:18:56;;;;;;;7.68;5.10;;;19.60;93.40;;;;;;5037702;28;20395;-85
2021/04/02 09:21:23;;;;;;;5.80;4.25;;;19.70;92.80;;;;;;5037640;28;20033;-85
2021/04/02 09:23:53;;;;;;;6.50;4.72;;;19.80;93.20;;;;;;5036479;28;20029;-83
2021/04/02 09:26:21;;;;;;;8.77;5.20;;;19.90;92.90;;;;;;5043603;28;20123;-78
2021/04/02 09:28:49;;;;;;;6.45;4.35;;;20.10;92.60;;;;;;5046313;28;20474;-81
2021/04/02 09:31:17;;;;;;;8.15;5.13;;;20.10;92.10;;;;;;5045175;28;20090;-78
2021/04/02 09:33:45;;;;;;;9.38;4.35;;;20.20;92.30;;;;;;5053741;28;20079;-83
2021/04/02 09:36:13;;;;;;;8.27;4.88;;;20.40;92.70;;;;;;5052601;28;20629;-86
2021/04/02 09:38:40;;;;;;;8.68;4.63;;;20.50;91.70;;;;;;5050305;28;20029;-86
2021/04/02 09:41:06;;;;;;;5.53;4.20;;;20.70;91.40;;;;;;5048072;28;20036;-80
2021/04/02 09:43:41;;;;;;;5.65;3.97;;;20.70;91.30;;;;;;5049060;28;20039;-84
2021/04/02 09:46:07;;;;;;;7.57;4.10;;;20.70;90.90;;;;;;5047636;28;20066;-85
2021/04/02 09:48:38;;;;;;;7.22;4.40;;;20.80;90.90;;;;;;5044545;28;20093;-86
2021/04/02 09:51:05;;;;;;;6.30;4.72;;;20.90;90.50;;;;;;5050407;28;20055;-82
2021/04/02 09:53:31;;;;;;;7.57;4.28;;;20.90;90.70;;;;;;5036321;28;20026;-84
2021/04/02 09:55:57;;;;;;;8.45;4.10;;;21.10;90.50;;;;;;5060521;28;20032;-86
2021/04/02 09:58:23;;;;;;;9.25;4.70;;;21.30;90.10;;;;;;5053885;28;20031;-81
2021/04/02 10:00:50;;;;;;;7.78;4.35;;;21.40;90.20;;;;;;5051206;28;20489;-85
2021/04/02 10:03:16;;;;;;;7.63;4.38;;;21.50;88.70;;;;;;5047167;28;20555;-78
2021/04/02 10:05:42;;;;;;;5.38;4.35;;;21.60;87.50;;;;;;5033687;28;20404;-78
2021/04/02 10:08:08;;;;;;;6.30;4.32;;;21.70;87.60;;;;;;5032818;28;20193;-77
2021/04/02 10:10:35;;;;;;;7.35;4.85;;;21.80;87.20;;;;;;5046448;28;20033;-79
2021/04/02 10:13:01;;;;;;;6.65;3.85;;;21.90;86.80;;;;;;5035390;28;20032;-77
2021/04/02 10:15:27;;;;;;;7.05;3.58;;;22.10;86.60;;;;;;5044870;28;20051;-78
2021/04/02 10:17:53;;;;;;;5.93;3.90;;;22.10;85.70;;;;;;5048247;28;20103;-77
2021/04/02 10:20:19;;;;;;;5.00;4.03;;;22.10;86.10;;;;;;5047175;28;20347;-83
2021/04/02 10:22:46;;;;;;;5.20;4.00;;;22.20;85.90;;;;;;5033899;28;20460;-85
2021/04/02 10:25:12;;;;;;;6.82;3.97;;;22.40;85.10;;;;;;5033806;28;20052;-83
2021/04/02 10:31:18;;;;;;;6.72;4.40;;;22.80;84.90;;;;;;5034836;28;20029;-85
2021/04/02 10:33:46;;;;;;;6.18;4.18;;;22.90;84.00;;;;;;5047206;28;20785;-86
2021/04/02 10:36:13;;;;;;;6.65;3.78;;;23.00;83.20;;;;;;5048838;28;20032;-86
2021/04/02 10:38:40;;;;;;;5.55;3.63;;;23.20;83.20;;;;;;5053090;28;20379;-85
2021/04/02 10:41:06;;;;;;;7.03;3.92;;;23.50;83.10;;;;;;5036545;28;20480;-82
2021/04/02 10:43:32;;;;;;;5.60;3.85;;;23.50;81.70;;;;;;5038440;28;20136;-83
2021/04/02 10:46:00;;;;;;;8.23;4.20;;;23.70;82.40;;;;;;5045841;28;20387;-81
2021/04/02 10:48:26;;;;;;;6.18;4.28;;;23.90;82.50;;;;;;5053545;28;20029;-85
2021/04/02 10:50:53;;;;;;;6.25;4.05;;;23.90;82.70;;;;;;5052748;28;20420;-85
2021/04/02 10:53:19;;;;;;;4.90;3.47;;;23.90;81.40;;;;;;5052738;28;20032;-84
2021/04/02 10:55:45;;;;;;;8.60;3.93;;;23.90;80.50;;;;;;5053125;28;20017;-87
2021/04/02 10:58:12;;;;;;;5.40;4.65;;;24.00;80.90;;;;;;5053158;28;20029;-86
2021/04/02 11:00:39;;;;;;;4.47;3.15;;;24.10;80.80;;;;;;5053087;28;20017;-83
2021/04/02 11:03:06;;;;;;;6.07;4.03;;;24.20;79.40;;;;;;5044503;28;20119;-85
2021/04/02 11:05:32;;;;;;;4.72;3.53;;;24.10;78.50;;;;;;5025311;28;20045;-84
2021/04/02 11:07:59;;;;;;;6.18;3.78;;;24.20;76.70;;;;;;5014712;28;20503;-80
2021/04/02 11:10:25;;;;;;;8.77;4.82;;;24.40;76.50;;;;;;5032224;28;20083;-83
2021/04/02 11:12:53;;;;;;;5.47;3.40;;;24.60;76.80;;;;;;5038747;28;20064;-88
2021/04/02 11:15:19;;;;;;;6.95;3.47;;;24.60;76.10;;;;;;5052175;28;20041;-82
2021/04/02 11:17:46;;;;;;;5.72;3.35;;;24.50;75.50;;;;;;5052136;28;20029;-82
2021/04/02 11:20:15;;;;;;;5.35;3.28;;;24.60;75.00;;;;;;5051849;28;20467;-82
2021/04/02 11:22:42;;;;;;;6.40;3.47;;;24.60;75.30;;;;;;5052000;28;20029;-78
2021/04/02 11:25:10;;;;;;;7.32;4.60;;;24.80;75.40;;;;;;5059307;28;20093;-79
2021/04/02 11:27:36;;;;;;;6.07;3.80;;;24.60;83.70;;;;;;5037425;28;20029;-81
2021/04/02 11:30:05;;;;;;;6.88;4.75;;;24.50;86.00;;;;;;5052139;28;20032;-83
2021/04/02 11:32:30;;;;;;;5.53;4.18;;;24.50;86.20;;;;;;5051686;28;20017;-82
2021/04/02 11:34:56;;;;;;;10.35;4.57;;;24.50;86.70;;;;;;5051665;28;20032;-81
2021/04/02 11:37:23;;;;;;;9.70;4.25;;;24.50;86.80;;;;;;5052005;28;20028;-81
2021/04/02 11:39:49;;;;;;;9.88;4.63;;;24.40;87.60;;;;;;5051895;28;20090;-81
2021/04/02 11:42:16;;;;;;;5.78;3.67;;;24.40;87.60;;;;;;5051875;28;20056;-81
2021/04/02 11:44:42;;;;;;;6.47;4.20;;;24.50;88.00;;;;;;5045211;28;20037;-80
2021/04/02 11:47:09;;;;;;;9.18;4.32;;;24.40;88.40;;;;;;5049465;28;20032;-80
2021/04/02 11:49:37;;;;;;;8.80;4.47;;;24.50;89.40;;;;;;5051762;28;20040;-81
2021/04/02 11:52:04;;;;;;;10.18;4.55;;;24.40;88.80;;;;;;5052011;28;20040;-82
2021/04/02 11:54:30;;;;;;;8.80;4.63;;;24.30;89.10;;;;;;5033339;28;20029;-81
2021/04/02 11:56:56;;;;;;;8.25;4.35;;;24.20;89.10;;;;;;5051733;28;20408;-79
2021/04/02 11:59:22;;;;;;;6.90;4.43;;;24.30;89.90;;;;;;5051425;28;20024;-81
2021/04/02 12:01:48;;;;;;;10.57;4.28;;;24.30;89.00;;;;;;5033821;28;20033;-81
2021/04/02 12:04:14;;;;;;;8.85;4.05;;;24.20;89.20;;;;;;5051242;28;20044;-79
2021/04/02 12:06:41;;;;;;;5.10;4.13;;;24.20;90.10;;;;;;5051438;28;20104;-84
2021/04/02 12:09:07;;;;;;;6.55;4.32;;;24.10;89.10;;;;;;5033674;28;20036;-79
2021/04/02 12:11:33;;;;;;;7.57;3.72;;;24.20;89.40;;;;;;5051588;28;20033;-79
2021/04/02 12:13:59;;;;;;;10.05;5.07;;;24.20;89.30;;;;;;5051212;28;20025;-78
2021/04/02 12:16:25;;;;;;;9.27;4.32;;;24.30;89.60;;;;;;5052679;28;20152;-83
2021/04/02 12:18:52;;;;;;;6.75;4.32;;;24.30;89.00;;;;;;5055695;28;20033;-86
2021/04/02 12:21:19;;;;;;;6.80;4.95;;;24.30;90.20;;;;;;5055634;28;20032;-78
2021/04/02 12:23:45;;;;;;;6.45;4.32;;;24.30;89.30;;;;;;5055616;28;20021;-78
2021/04/02 12:26:11;;;;;;;7.30;3.90;;;24.10;90.10;;;;;;5055348;28;20024;-84
2021/04/02 12:28:37;;;;;;;7.57;4.43;;;24.30;90.30;;;;;;5055804;28;20025;-84
2021/04/02 12:31:03;;;;;;;7.60;4.18;;;24.20;89.30;;;;;;5055787;28;20107;-85
2021/04/02 12:33:31;;;;;;;7.85;5.05;;;24.20;90.00;;;;;;5055690;28;20455;-77
2021/04/02 12:35:57;;;;;;;9.60;4.32;;;24.30;89.60;;;;;;5056018;28;20482;-76
2021/04/02 12:38:24;;;;;;;5.35;3.65;;;24.40;89.60;;;;;;5060215;28;20025;-84
2021/04/02 12:40:51;;;;;;;5.47;4.18;;;24.40;89.80;;;;;;5055231;28;20021;-85
2021/04/02 12:43:17;;;;;;;7.10;4.10;;;24.20;89.20;;;;;;5055235;28;20063;-85
2021/04/02 12:45:43;;;;;;;6.07;4.70;;;24.30;90.10;;;;;;5055250;28;20045;-83
2021/04/02 12:48:10;;;;;;;7.43;4.53;;;24.20;90.00;;;;;;5037181;28;20127;-84
2021/04/02 12:50:36;;;;;;;7.05;4.30;;;24.30;90.30;;;;;;5054631;28;20078;-82
2021/04/02 12:53:02;;;;;;;7.93;4.55;;;24.40;89.30;;;;;;5054867;28;20115;-83